createdAt,value
2023-02-15T00:01:25.895Z,31.47
2023-02-15T00:03:55.686Z,29.67
2023-02-15T00:06:23.640Z,29.37
2023-02-15T00:08:51.015Z,31.43
2023-02-15T00:11:38.745Z,30.03
2023-02-15T00:14:08.312Z,29.90
2023-02-15T00:16:36.168Z,30.57
2023-02-15T00:19:06.030Z,28.23
2023-02-15T00:21:34.732Z,28.83
2023-02-15T00:24:06.499Z,30.67
2023-02-15T00:26:39.342Z,28.93
2023-02-15T00:29:07.383Z,29.60
2023-02-15T00:31:37.042Z,29.97
2023-02-15T00:34:09.129Z,30.87
2023-02-15T00:36:38.829Z,29.50
2023-02-15T00:39:06.124Z,29.43
2023-02-15T00:41:33.960Z,30.57
2023-02-15T00:44:04.339Z,29.27
2023-02-15T00:46:34.757Z,30.43
2023-02-15T00:49:02.094Z,29.33
2023-02-15T00:51:32.346Z,29.17
2023-02-15T00:53:59.617Z,29.10
2023-02-15T00:56:26.808Z,29.20
2023-02-15T00:58:56.100Z,29.37
2023-02-15T01:01:24.395Z,29.70
2023-02-15T01:03:52.868Z,29.40
2023-02-15T01:06:25.306Z,29.17
2023-02-15T01:08:52.546Z,28.40
2023-02-15T01:11:25.032Z,28.43
2023-02-15T01:13:57.081Z,28.87
2023-02-15T01:16:26.533Z,29.00
2023-02-15T01:18:56.107Z,29.27
2023-02-15T01:21:27.318Z,29.00
2023-02-15T01:23:56.764Z,28.67
2023-02-15T01:26:23.909Z,28.97
2023-02-15T01:28:55.706Z,27.87
2023-02-15T01:31:22.984Z,28.00
2023-02-15T01:33:54.835Z,28.27
2023-02-15T01:36:24.034Z,27.97
2023-02-15T01:38:53.682Z,28.40
2023-02-15T01:41:20.927Z,27.37
2023-02-15T01:43:55.044Z,26.97
2023-02-15T01:46:49.413Z,28.33
2023-02-15T01:49:24.841Z,29.03
2023-02-15T01:51:53.842Z,27.67
2023-02-15T01:54:36.808Z,28.83
2023-02-15T01:57:16.616Z,27.47
2023-02-15T01:59:50.107Z,29.43
2023-02-15T02:02:19.177Z,29.77
2023-02-15T02:04:50.264Z,28.13
2023-02-15T02:07:27.627Z,27.87
2023-02-15T02:09:57.206Z,28.47
2023-02-15T02:12:28.352Z,28.03
2023-02-15T02:14:58.189Z,28.50
2023-02-15T02:17:40.329Z,29.97
2023-02-15T02:20:24.524Z,28.70
2023-02-15T02:23:30.253Z,29.37
2023-02-15T02:26:17.755Z,27.27
2023-02-15T02:29:12.062Z,28.87
2023-02-15T02:32:06.202Z,29.03
2023-02-15T02:34:44.063Z,27.90
2023-02-15T02:37:35.223Z,28.73
2023-02-15T02:40:05.437Z,28.40
2023-02-15T02:42:45.085Z,29.73
2023-02-15T02:45:18.374Z,30.33
2023-02-15T02:47:54.128Z,27.50
2023-02-15T02:50:27.799Z,29.23
2023-02-15T02:52:56.787Z,27.97
2023-02-15T02:55:46.041Z,29.20
2023-02-15T02:58:34.997Z,27.50
2023-02-15T03:01:13.154Z,29.70
2023-02-15T03:03:43.995Z,28.50
2023-02-15T03:06:19.136Z,29.20
2023-02-15T03:09:16.544Z,27.70
2023-02-15T03:11:45.864Z,28.57
2023-02-15T03:14:16.201Z,27.57
2023-02-15T03:16:46.907Z,30.33
2023-02-15T03:19:29.850Z,29.30
2023-02-15T03:22:10.167Z,28.87
2023-02-15T03:24:45.101Z,28.60
2023-02-15T03:27:25.171Z,29.07
2023-02-15T03:29:57.903Z,27.43
2023-02-15T03:32:33.636Z,29.87
2023-02-15T03:35:01.028Z,27.60
2023-02-15T03:37:41.458Z,28.20
2023-02-15T03:40:36.362Z,28.17
2023-02-15T03:43:15.314Z,27.83
2023-02-15T03:45:55.787Z,29.13
2023-02-15T03:48:27.597Z,28.43
2023-02-15T03:51:23.311Z,28.33
2023-02-15T03:53:55.802Z,28.67
2023-02-15T03:56:22.986Z,28.73
2023-02-15T03:59:08.556Z,27.80
2023-02-15T04:02:03.738Z,29.50
2023-02-15T04:04:36.827Z,29.13
2023-02-15T04:07:07.325Z,28.90
2023-02-15T04:09:55.899Z,28.37
2023-02-15T04:12:23.332Z,27.60
2023-02-15T04:15:11.371Z,26.40
2023-02-15T04:17:39.308Z,28.93
2023-02-15T04:20:28.613Z,29.13
2023-02-15T04:23:14.078Z,28.00
2023-02-15T04:25:41.223Z,28.73
2023-02-15T04:28:10.745Z,27.97
2023-02-15T04:30:40.319Z,27.80
2023-02-15T04:33:07.408Z,28.23
2023-02-15T04:35:34.618Z,28.87
2023-02-15T04:38:03.979Z,27.97
2023-02-15T04:40:31.142Z,27.87
2023-02-15T04:42:58.243Z,25.70
2023-02-15T04:45:25.350Z,28.23
2023-02-15T04:47:54.857Z,28.67
2023-02-15T04:50:24.122Z,28.67
2023-02-15T04:52:51.286Z,28.77
2023-02-15T04:55:18.554Z,28.40
2023-02-15T04:57:49.203Z,26.90
2023-02-15T05:00:19.075Z,27.67
2023-02-15T05:02:48.797Z,26.67
2023-02-15T05:05:16.216Z,28.10
2023-02-15T05:07:45.420Z,27.53
2023-02-15T05:10:14.844Z,27.70
2023-02-15T05:12:46.499Z,26.57
2023-02-15T05:15:13.664Z,27.47
2023-02-15T05:17:44.073Z,26.83
2023-02-15T05:20:14.108Z,26.33
2023-02-15T05:22:41.863Z,29.07
2023-02-15T05:25:31.256Z,27.07
2023-02-15T05:28:16.559Z,28.07
2023-02-15T05:30:47.326Z,27.83
2023-02-15T05:33:16.602Z,28.70
2023-02-15T05:35:45.942Z,27.43
2023-02-15T05:38:13.166Z,29.07
2023-02-15T05:40:40.312Z,29.03
2023-02-15T05:43:07.740Z,28.43
2023-02-15T05:45:40.231Z,27.60
2023-02-15T05:48:07.448Z,29.67
2023-02-15T05:50:37.008Z,27.87
2023-02-15T05:53:04.182Z,28.90
2023-02-15T05:55:31.307Z,28.53
2023-02-15T05:58:00.515Z,27.77
2023-02-15T06:00:27.638Z,28.23
2023-02-15T06:02:54.712Z,28.90
2023-02-15T06:05:21.886Z,29.67
2023-02-15T06:07:48.993Z,28.93
2023-02-15T06:10:16.434Z,28.30
2023-02-15T06:12:45.357Z,28.57
2023-02-15T06:15:15.810Z,29.40
2023-02-15T06:17:45.169Z,29.13
2023-02-15T06:20:15.116Z,29.40
2023-02-15T06:22:42.298Z,29.73
2023-02-15T06:25:11.099Z,29.20
2023-02-15T06:27:40.884Z,28.80
2023-02-15T06:30:12.311Z,27.83
2023-02-15T06:32:39.444Z,27.67
2023-02-15T06:35:07.613Z,29.10
2023-02-15T06:37:39.596Z,28.30
2023-02-15T06:40:10.555Z,28.87
2023-02-15T06:42:37.677Z,27.83
2023-02-15T06:45:08.446Z,29.53
2023-02-15T06:47:35.761Z,29.80
2023-02-15T06:50:09.062Z,29.27
2023-02-15T06:52:38.743Z,29.83
2023-02-15T06:55:07.181Z,29.57
2023-02-15T06:57:34.603Z,28.43
2023-02-15T07:00:05.848Z,29.13
2023-02-15T07:02:37.485Z,28.60
2023-02-15T07:05:09.918Z,29.57
2023-02-15T07:07:37.097Z,30.33
2023-02-15T07:10:04.829Z,29.90
2023-02-15T07:12:45.219Z,28.57
2023-02-15T07:15:17.001Z,28.87
2023-02-15T07:17:49.180Z,29.23
2023-02-15T07:20:21.355Z,29.47
2023-02-15T07:22:54.150Z,29.73
2023-02-15T07:25:21.356Z,29.43
2023-02-15T07:28:00.226Z,28.17
2023-02-15T07:30:30.785Z,30.17
2023-02-15T07:33:17.346Z,30.80
2023-02-15T07:35:55.164Z,31.77
2023-02-15T07:38:30.518Z,32.43
2023-02-15T07:41:02.129Z,31.77
2023-02-15T07:43:34.011Z,29.00
2023-02-15T07:46:10.065Z,30.90
2023-02-15T07:48:40.343Z,29.70
2023-02-15T07:51:11.359Z,29.60
2023-02-15T07:53:39.461Z,29.43
2023-02-15T07:56:11.574Z,29.70
2023-02-15T07:58:56.804Z,28.50
2023-02-15T08:01:28.230Z,29.30
2023-02-15T08:03:56.319Z,28.63
2023-02-15T08:06:26.198Z,27.73
2023-02-15T08:08:54.041Z,29.03
2023-02-15T08:11:40.610Z,28.47
2023-02-15T08:14:24.161Z,28.90
2023-02-15T08:16:56.882Z,28.80
2023-02-15T08:19:32.729Z,29.27
2023-02-15T08:22:03.490Z,32.30
2023-02-15T08:24:37.814Z,30.53
2023-02-15T08:27:06.949Z,29.50
2023-02-15T08:29:38.417Z,29.30
2023-02-15T08:32:11.001Z,30.90
2023-02-15T08:34:41.707Z,29.33
2023-02-15T08:37:08.837Z,29.17
2023-02-15T08:39:38.298Z,28.73
2023-02-15T08:42:05.639Z,29.17
2023-02-15T08:44:32.818Z,28.67
2023-02-15T08:47:04.603Z,29.03
2023-02-15T08:49:32.439Z,29.17
2023-02-15T08:52:00.674Z,29.20
2023-02-15T08:54:35.161Z,29.07
2023-02-15T08:57:02.326Z,31.27
2023-02-15T08:59:31.857Z,31.60
2023-02-15T09:01:59.397Z,29.27
2023-02-15T09:04:26.543Z,30.77
2023-02-15T09:06:54.094Z,31.17
2023-02-15T09:09:22.418Z,32.80
2023-02-15T09:11:56.774Z,32.50
2023-02-15T09:14:27.541Z,31.13
2023-02-15T09:16:55.234Z,28.23
2023-02-15T09:19:24.007Z,30.47
2023-02-15T09:21:53.345Z,31.47
2023-02-15T09:24:20.542Z,31.87
2023-02-15T09:26:51.437Z,30.47
2023-02-15T09:29:21.329Z,30.70
2023-02-15T09:31:51.599Z,30.23
2023-02-15T09:34:21.945Z,30.40
2023-02-15T09:36:56.119Z,30.27
2023-02-15T09:39:30.039Z,29.57
2023-02-15T09:42:19.937Z,29.97
2023-02-15T09:45:08.133Z,30.00
2023-02-15T09:48:08.644Z,28.87
2023-02-15T09:51:02.533Z,27.37
2023-02-15T09:53:54.096Z,28.93
2023-02-15T09:56:38.487Z,29.10
2023-02-15T09:59:30.836Z,27.67
2023-02-15T10:02:27.607Z,27.67
2023-02-15T10:05:09.610Z,28.63
2023-02-15T10:08:00.929Z,28.93
2023-02-15T10:10:49.996Z,29.07
2023-02-15T10:13:52.055Z,26.97
2023-02-15T10:16:48.117Z,27.43
2023-02-15T10:19:33.377Z,25.10
2023-02-15T10:22:17.167Z,25.27
2023-02-15T10:24:54.909Z,25.57
2023-02-15T10:27:22.905Z,24.50
2023-02-15T10:30:12.430Z,23.50
2023-02-15T10:32:49.706Z,24.43
2023-02-15T10:35:26.945Z,24.87
2023-02-15T10:38:11.550Z,24.10
2023-02-15T10:41:01.830Z,25.93
2023-02-15T10:43:53.959Z,25.80
2023-02-15T10:47:08.922Z,24.20
2023-02-15T10:50:10.757Z,25.03
2023-02-15T10:52:43.688Z,23.30
2023-02-15T10:55:27.413Z,23.97
2023-02-15T10:58:01.363Z,24.43
2023-02-15T11:00:50.575Z,24.50
2023-02-15T11:03:17.828Z,22.20
2023-02-15T11:06:08.668Z,25.27
2023-02-15T11:08:40.552Z,24.30
2023-02-15T11:11:15.995Z,24.47
2023-02-15T11:13:49.086Z,24.53
2023-02-15T11:16:22.084Z,25.20
2023-02-15T11:18:58.319Z,23.47
2023-02-15T11:21:33.958Z,24.83
2023-02-15T11:24:13.064Z,23.53
2023-02-15T11:27:04.636Z,24.43
2023-02-15T11:29:59.972Z,23.53
2023-02-15T11:32:34.234Z,21.93
2023-02-15T11:35:04.812Z,23.17
2023-02-15T11:37:39.808Z,23.13
2023-02-15T11:40:25.625Z,29.30
2023-02-15T11:43:06.422Z,24.40
2023-02-15T11:45:37.746Z,24.03
2023-02-15T11:48:14.017Z,23.03
2023-02-15T11:50:42.476Z,23.53
2023-02-15T11:53:18.998Z,22.60
2023-02-15T11:55:48.091Z,22.80
2023-02-15T11:58:21.086Z,22.23
2023-02-15T12:00:51.702Z,22.40
2023-02-15T12:03:37.576Z,21.77
2023-02-15T12:06:06.804Z,22.03
2023-02-15T12:08:44.947Z,21.53
2023-02-15T12:11:21.960Z,22.30
2023-02-15T12:13:57.395Z,20.90
2023-02-15T12:16:24.811Z,23.27
2023-02-15T12:18:59.518Z,23.13
2023-02-15T12:21:42.028Z,22.83
2023-02-15T12:24:21.942Z,21.17
2023-02-15T12:26:58.658Z,22.93
2023-02-15T12:29:30.447Z,22.40
2023-02-15T12:31:58.967Z,23.07
2023-02-15T12:34:40.616Z,23.37
2023-02-15T12:37:27.420Z,22.17
2023-02-15T12:40:02.464Z,24.13
2023-02-15T12:42:43.807Z,23.57
2023-02-15T12:45:26.475Z,20.80
2023-02-15T12:48:25.858Z,22.97
2023-02-15T12:51:11.078Z,22.43
2023-02-15T12:53:39.388Z,22.20
2023-02-15T12:56:10.161Z,22.63
2023-02-15T12:58:42.229Z,22.40
2023-02-15T13:01:25.495Z,21.93
2023-02-15T13:04:05.998Z,23.27
2023-02-15T13:06:37.593Z,23.17
2023-02-15T13:09:25.133Z,23.20
2023-02-15T13:11:52.583Z,22.40
2023-02-15T13:14:20.980Z,23.10
2023-02-15T13:16:51.484Z,25.30
2023-02-15T13:19:40.678Z,25.00
2023-02-15T13:22:15.586Z,22.57
2023-02-15T13:24:54.646Z,23.77
2023-02-15T13:27:27.233Z,22.93
2023-02-15T13:30:00.305Z,22.83
2023-02-15T13:32:30.719Z,22.07
2023-02-15T13:35:04.847Z,23.90
2023-02-15T13:37:46.113Z,23.10
2023-02-15T13:40:42.922Z,24.20
2023-02-15T13:43:39.060Z,22.87
2023-02-15T13:46:12.052Z,23.00
2023-02-15T13:49:07.377Z,23.20
2023-02-15T13:52:15.404Z,23.97
2023-02-15T13:54:48.376Z,21.63
2023-02-15T13:57:37.872Z,23.53
2023-02-15T14:00:41.901Z,23.70
2023-02-15T14:03:33.611Z,23.20
2023-02-15T14:06:11.734Z,25.67
2023-02-15T14:08:51.495Z,23.60
2023-02-15T14:11:27.826Z,24.93
2023-02-15T14:14:41.579Z,22.83
2023-02-15T14:17:26.657Z,23.70
2023-02-15T14:20:16.724Z,23.43
2023-02-15T14:23:01.961Z,22.83
2023-02-15T14:25:37.820Z,25.37
2023-02-15T14:28:13.824Z,25.20
2023-02-15T14:30:49.682Z,25.00
2023-02-15T14:33:39.084Z,24.53
2023-02-15T14:36:12.312Z,23.67
2023-02-15T14:39:32.658Z,24.07
2023-02-15T14:42:14.078Z,23.00
2023-02-15T14:44:51.813Z,23.73
2023-02-15T14:48:07.392Z,23.33
2023-02-15T14:50:43.909Z,23.40
2023-02-15T14:53:36.922Z,23.00
2023-02-15T14:56:14.662Z,23.20
2023-02-15T14:58:50.828Z,23.90
2023-02-15T15:01:49.172Z,23.80
2023-02-15T15:04:28.160Z,23.03
2023-02-15T15:07:24.161Z,22.83
2023-02-15T15:10:18.804Z,23.83
2023-02-15T15:13:01.555Z,26.33
2023-02-15T15:15:30.802Z,26.10
2023-02-15T15:18:13.727Z,26.63
2023-02-15T15:20:52.343Z,25.27
2023-02-15T15:23:22.134Z,25.20
2023-02-15T15:25:56.660Z,24.00
2023-02-15T15:28:46.264Z,26.77
2023-02-15T15:31:25.148Z,25.20
2023-02-15T15:33:55.198Z,25.70
2023-02-15T15:36:34.098Z,24.87
2023-02-15T15:39:28.581Z,25.57
2023-02-15T15:42:49.369Z,24.57
2023-02-15T15:45:54.723Z,24.33
2023-02-15T15:48:24.825Z,23.23
2023-02-15T15:51:00.599Z,24.00
2023-02-15T15:53:33.246Z,23.70
2023-02-15T15:56:07.394Z,22.40
2023-02-15T15:58:35.681Z,22.87
2023-02-15T16:05:20.817Z,23.77
2023-02-15T16:07:48.228Z,23.37
2023-02-15T16:10:27.538Z,21.67
2023-02-15T16:12:57.521Z,22.90
2023-02-15T16:15:50.618Z,25.07
2023-02-15T16:18:19.927Z,24.50
2023-02-15T16:20:56.630Z,23.27
2023-02-15T16:23:32.253Z,25.13
2023-02-15T16:26:11.298Z,24.53
2023-02-15T16:28:48.300Z,24.50
2023-02-15T16:31:19.744Z,23.93
2023-02-15T16:33:47.691Z,24.63
2023-02-15T16:36:28.321Z,25.87
2023-02-15T16:38:55.433Z,24.70
2023-02-15T16:41:32.311Z,24.97
2023-02-15T16:44:16.056Z,26.57
2023-02-15T16:46:46.914Z,26.03
2023-02-15T16:49:25.973Z,25.73
2023-02-15T16:52:02.080Z,26.60
2023-02-15T16:54:32.895Z,26.13
2023-02-15T16:57:00.358Z,25.03
2023-02-15T16:59:38.050Z,25.60
2023-02-15T17:02:12.555Z,25.60
2023-02-15T17:04:41.726Z,27.00
2023-02-15T17:07:18.621Z,27.10
2023-02-15T17:09:54.285Z,26.70
2023-02-15T17:12:49.687Z,27.43
2023-02-15T17:15:36.342Z,25.87
2023-02-15T17:18:19.629Z,28.47
2023-02-15T17:20:48.947Z,28.20
2023-02-15T17:23:24.586Z,28.30
2023-02-15T17:25:52.888Z,28.27
2023-02-15T17:28:28.840Z,28.97
2023-02-15T17:30:57.613Z,29.23
2023-02-15T17:33:29.998Z,27.77
2023-02-15T17:36:20.263Z,29.47
2023-02-15T17:39:19.765Z,29.43
2023-02-15T17:41:50.833Z,28.93
2023-02-15T17:44:19.896Z,30.50
2023-02-15T17:46:54.527Z,30.83
2023-02-15T17:49:35.270Z,29.13
2023-02-15T17:52:05.975Z,29.53
2023-02-15T17:54:54.044Z,30.33
2023-02-15T17:57:23.392Z,30.10
2023-02-15T18:00:09.253Z,29.47
2023-02-15T18:02:55.202Z,31.40
2023-02-15T18:05:43.422Z,30.17
2023-02-15T18:08:34.706Z,31.37
2023-02-15T18:11:23.189Z,29.30
2023-02-15T18:13:52.808Z,28.83
2023-02-15T18:16:28.049Z,29.43
2023-02-15T18:18:57.912Z,29.43
2023-02-15T18:21:31.425Z,27.80
2023-02-15T18:24:00.869Z,28.03
2023-02-15T18:26:32.508Z,29.00
2023-02-15T18:29:01.989Z,29.60
2023-02-15T18:31:29.230Z,28.87
2023-02-15T18:33:59.708Z,29.17
2023-02-15T18:36:40.416Z,29.77
2023-02-15T18:39:38.355Z,29.37
2023-02-15T18:42:06.278Z,29.83
2023-02-15T18:44:35.838Z,28.40
2023-02-15T18:47:05.404Z,31.03
2023-02-15T18:49:34.768Z,28.90
2023-02-15T18:52:04.726Z,30.97
2023-02-15T18:54:32.524Z,29.83
2023-02-15T18:57:01.511Z,29.97
2023-02-15T18:59:30.558Z,31.80
2023-02-15T19:02:01.181Z,30.97
2023-02-15T19:04:28.445Z,31.43
2023-02-15T19:06:57.700Z,32.03
2023-02-15T19:09:27.894Z,32.10
2023-02-15T19:11:59.154Z,33.07
2023-02-15T19:14:33.357Z,33.03
2023-02-15T19:17:13.553Z,33.50
2023-02-15T19:19:43.114Z,32.20
2023-02-15T19:22:31.298Z,32.07
2023-02-15T19:25:04.862Z,31.77
2023-02-15T19:27:38.004Z,32.63
2023-02-15T19:30:19.202Z,31.93
2023-02-15T19:32:48.989Z,33.23
2023-02-15T19:35:22.480Z,34.00
2023-02-15T19:37:53.633Z,30.70
2023-02-15T19:40:24.302Z,30.43
2023-02-15T19:42:53.974Z,31.50
2023-02-15T19:45:23.748Z,30.83
2023-02-15T19:47:55.229Z,30.47
2023-02-15T19:50:25.574Z,29.83
2023-02-15T19:52:52.828Z,29.80
2023-02-15T19:55:26.010Z,31.80
2023-02-15T19:57:57.442Z,30.23
2023-02-15T20:00:32.355Z,29.80
2023-02-15T20:03:02.064Z,31.70
2023-02-15T20:05:31.827Z,31.17
2023-02-15T20:07:58.999Z,30.57
2023-02-15T20:10:31.789Z,31.63
2023-02-15T20:12:59.149Z,29.73
2023-02-15T20:15:39.844Z,31.80
2023-02-15T20:18:07.174Z,31.80
2023-02-15T20:20:43.880Z,31.37
2023-02-15T20:23:35.604Z,30.80
2023-02-15T20:26:18.478Z,30.43
2023-02-15T20:28:48.549Z,30.90
2023-02-15T20:31:20.636Z,32.47
2023-02-15T20:33:48.782Z,31.43
2023-02-15T20:36:22.933Z,30.60
2023-02-15T20:38:50.518Z,30.63
2023-02-15T20:41:36.755Z,31.73
2023-02-15T20:44:18.695Z,30.20
2023-02-15T20:46:46.019Z,31.93
2023-02-15T20:49:20.759Z,29.63
2023-02-15T20:51:50.497Z,30.27
2023-02-15T20:54:23.249Z,31.50
2023-02-15T20:56:55.338Z,30.53
2023-02-15T20:59:35.439Z,31.93
2023-02-15T21:02:25.483Z,31.00
2023-02-15T21:04:52.739Z,30.93
2023-02-15T21:07:23.329Z,31.77
2023-02-15T21:09:54.299Z,30.70
2023-02-15T21:12:22.232Z,31.57
2023-02-15T21:14:49.537Z,31.53
2023-02-15T21:17:19.472Z,32.40
2023-02-15T21:19:51.601Z,31.17
2023-02-15T21:22:24.786Z,30.33
2023-02-15T21:24:55.030Z,30.13
2023-02-15T21:27:22.355Z,31.17
2023-02-15T21:29:49.593Z,30.73
2023-02-15T21:32:17.004Z,31.17
2023-02-15T21:34:44.229Z,30.33
2023-02-15T21:37:29.094Z,30.97
2023-02-15T21:40:02.441Z,31.13
2023-02-15T21:42:50.260Z,30.40
2023-02-15T21:45:36.548Z,30.23
2023-02-15T21:48:06.063Z,31.03
2023-02-15T21:50:53.925Z,30.73
2023-02-15T21:53:36.500Z,29.87
2023-02-15T21:56:10.555Z,30.03
2023-02-15T21:58:38.241Z,29.47
2023-02-15T22:01:17.739Z,31.27
2023-02-15T22:03:49.763Z,31.17
2023-02-15T22:06:17.246Z,30.07
2023-02-15T22:08:52.742Z,29.90
2023-02-15T22:11:22.661Z,30.27
2023-02-15T22:13:50.754Z,31.03
2023-02-15T22:16:23.033Z,29.33
2023-02-15T22:18:50.215Z,31.30
2023-02-15T22:21:22.377Z,30.17
2023-02-15T22:23:49.475Z,28.77
2023-02-15T22:26:25.204Z,31.17
2023-02-15T22:28:55.090Z,29.27
2023-02-15T22:31:25.409Z,30.43
2023-02-15T22:33:55.371Z,30.10
2023-02-15T22:36:24.715Z,31.63
2023-02-15T22:38:52.231Z,30.13
2023-02-15T22:41:23.028Z,29.70
2023-02-15T22:43:53.050Z,31.13
2023-02-15T22:46:23.791Z,31.93
2023-02-15T22:48:52.012Z,30.97
2023-02-15T22:51:27.132Z,31.43
2023-02-15T22:53:56.820Z,31.70
2023-02-15T22:56:31.687Z,32.40
2023-02-15T22:59:04.704Z,31.53
2023-02-15T23:01:38.011Z,33.00
2023-02-15T23:04:09.592Z,31.10
2023-02-15T23:06:36.766Z,30.77
2023-02-15T23:09:10.817Z,31.30
2023-02-15T23:11:38.043Z,30.37
2023-02-15T23:14:26.087Z,31.27
2023-02-15T23:16:55.372Z,30.50
2023-02-15T23:19:26.953Z,32.33
2023-02-15T23:21:56.465Z,30.67
2023-02-15T23:24:29.856Z,31.43
2023-02-15T23:27:22.931Z,31.33
2023-02-15T23:29:50.123Z,31.07
2023-02-15T23:32:17.356Z,31.33
2023-02-15T23:34:46.861Z,28.73
2023-02-15T23:37:15.559Z,32.17
2023-02-15T23:40:01.224Z,31.27
2023-02-15T23:42:31.779Z,31.77
2023-02-15T23:44:58.912Z,31.27
2023-02-15T23:47:50.094Z,31.27
2023-02-15T23:50:31.092Z,30.00
2023-02-15T23:52:58.655Z,30.07
2023-02-15T23:55:34.722Z,31.60
2023-02-15T23:58:08.516Z,31.67
